createdAt,value
2022-11-20T00:00:57.465Z,89.54
2022-11-20T00:04:01.797Z,89.08
2022-11-20T00:07:04.556Z,89.56
2022-11-20T00:10:07.707Z,89.30
2022-11-20T00:13:10.419Z,88.84
2022-11-20T00:16:14.640Z,89.29
2022-11-20T00:19:18.910Z,89.51
2022-11-20T00:22:21.717Z,89.51
2022-11-20T00:25:24.315Z,88.65
2022-11-20T00:28:26.872Z,88.24
2022-11-20T00:31:30.155Z,87.25
2022-11-20T00:34:34.114Z,87.28
2022-11-20T00:37:36.695Z,86.25
2022-11-20T00:40:39.361Z,86.08
2022-11-20T00:43:42.202Z,86.05
2022-11-20T00:46:44.783Z,86.27
2022-11-20T00:49:48.872Z,85.33
2022-11-20T00:52:51.395Z,85.15
2022-11-20T00:55:57.916Z,81.72
2022-11-20T00:59:02.866Z,79.82
2022-11-20T01:02:05.433Z,78.68
2022-11-20T01:05:09.807Z,77.53
2022-11-20T01:08:12.733Z,76.50
2022-11-20T01:11:16.895Z,76.94
2022-11-20T01:14:21.237Z,76.12
2022-11-20T01:17:24.018Z,75.06
2022-11-20T01:20:27.957Z,74.39
2022-11-20T01:23:33.280Z,73.30
2022-11-20T01:26:37.982Z,73.62
2022-11-20T01:29:40.571Z,72.97
2022-11-20T01:32:43.182Z,73.10
2022-11-20T01:35:47.158Z,72.08
2022-11-20T01:38:49.832Z,73.33
2022-11-20T01:42:11.033Z,74.00
2022-11-20T01:45:51.283Z,74.98
2022-11-20T01:48:56.677Z,75.29
2022-11-20T01:52:03.731Z,77.54
2022-11-20T01:55:10.097Z,79.56
2022-11-20T01:58:13.937Z,80.23
2022-11-20T02:01:16.907Z,81.02
2022-11-20T02:04:20.170Z,82.10
2022-11-20T02:07:24.760Z,78.30
2022-11-20T02:10:28.061Z,75.29
2022-11-20T02:13:45.622Z,74.90
2022-11-20T02:16:49.558Z,73.85
2022-11-20T02:19:52.470Z,72.59
2022-11-20T02:22:59.879Z,72.53
2022-11-20T02:26:05.639Z,72.80
2022-11-20T02:29:08.265Z,73.07
2022-11-20T02:32:20.466Z,73.48
2022-11-20T02:35:44.265Z,73.60
2022-11-20T02:38:47.050Z,73.84
2022-11-20T02:41:51.085Z,73.87
2022-11-20T02:44:53.678Z,73.80
2022-11-20T02:47:56.279Z,74.14
2022-11-20T02:50:58.905Z,73.15
2022-11-20T02:54:01.473Z,72.97
2022-11-20T02:57:05.459Z,72.67
2022-11-20T03:00:09.520Z,71.50
2022-11-20T03:03:12.252Z,71.42
2022-11-20T03:06:14.844Z,72.27
2022-11-20T03:09:17.426Z,72.32
2022-11-20T03:12:21.377Z,72.57
2022-11-20T03:15:24.040Z,72.90
2022-11-20T03:18:26.663Z,71.93
2022-11-20T03:21:29.320Z,70.32
2022-11-20T03:24:31.903Z,70.68
2022-11-20T03:27:36.719Z,70.77
2022-11-20T03:30:39.294Z,70.60
2022-11-20T03:33:42.720Z,70.99
2022-11-20T03:36:45.365Z,71.80
2022-11-20T03:39:47.919Z,72.77
2022-11-20T03:42:51.932Z,73.22
2022-11-20T03:45:54.499Z,73.78
2022-11-20T03:48:57.467Z,73.39
2022-11-20T03:52:00.031Z,73.80
2022-11-20T03:55:02.593Z,73.49
2022-11-20T03:58:06.462Z,74.10
2022-11-20T04:01:09.846Z,74.17
2022-11-20T04:04:12.523Z,75.09
2022-11-20T04:07:15.100Z,75.49
2022-11-20T04:10:17.969Z,75.29
2022-11-20T04:13:21.864Z,76.01
2022-11-20T04:16:25.944Z,75.73
2022-11-20T04:19:28.665Z,75.44
2022-11-20T04:22:31.309Z,74.47
2022-11-20T04:25:34.069Z,74.45
2022-11-20T04:28:38.394Z,73.67
2022-11-20T04:31:41.050Z,74.31
2022-11-20T04:34:43.651Z,74.14
2022-11-20T04:37:46.208Z,73.95
2022-11-20T04:40:48.773Z,73.59
2022-11-20T04:43:54.195Z,73.59
2022-11-20T04:46:56.708Z,73.48
2022-11-20T04:49:59.382Z,73.42
2022-11-20T04:53:01.944Z,72.94
2022-11-20T04:56:06.393Z,72.64
2022-11-20T04:59:10.332Z,72.20
2022-11-20T05:02:12.994Z,71.95
2022-11-20T05:05:15.801Z,71.45
2022-11-20T05:08:18.377Z,71.88
2022-11-20T05:11:22.186Z,71.98
2022-11-20T05:14:26.258Z,71.82
2022-11-20T05:17:28.947Z,71.06
2022-11-20T05:20:31.585Z,71.31
2022-11-20T05:23:34.625Z,71.62
2022-11-20T05:26:37.183Z,70.91
2022-11-20T05:29:41.271Z,71.46
2022-11-20T05:32:43.855Z,71.04
2022-11-20T05:35:46.851Z,70.98
2022-11-20T05:38:51.218Z,71.40
2022-11-20T05:42:14.147Z,71.67
2022-11-20T05:45:18.471Z,71.49
2022-11-20T05:48:21.221Z,70.81
2022-11-20T05:51:23.813Z,71.34
2022-11-20T05:54:26.434Z,71.18
2022-11-20T05:57:29.045Z,71.63
2022-11-20T06:00:33.012Z,71.24
2022-11-20T06:03:35.636Z,71.43
2022-11-20T06:06:38.198Z,71.33
2022-11-20T06:09:40.781Z,71.37
2022-11-20T06:12:43.331Z,71.49
2022-11-20T06:15:51.794Z,70.63
2022-11-20T06:18:54.477Z,71.63
2022-11-20T06:21:57.021Z,70.93
2022-11-20T06:24:59.627Z,70.40
2022-11-20T06:28:02.319Z,70.49
2022-11-20T06:31:07.216Z,71.74
2022-11-20T06:34:10.456Z,70.88
2022-11-20T06:37:13.066Z,70.35
2022-11-20T06:40:15.655Z,71.49
2022-11-20T06:43:18.410Z,70.98
2022-11-20T06:46:22.565Z,70.67
2022-11-20T06:49:26.151Z,69.81
2022-11-20T06:52:28.770Z,69.27
2022-11-20T06:55:31.603Z,69.34
2022-11-20T06:58:35.285Z,69.32
2022-11-20T07:01:39.227Z,69.15
2022-11-20T07:04:41.924Z,69.92
2022-11-20T07:07:44.545Z,70.11
2022-11-20T07:10:47.153Z,70.22
2022-11-20T07:13:49.719Z,69.96
2022-11-20T07:16:53.663Z,69.33
2022-11-20T07:19:56.300Z,69.26
2022-11-20T07:22:59.584Z,68.30
2022-11-20T07:26:05.228Z,68.54
2022-11-20T07:29:07.931Z,68.94
2022-11-20T07:32:11.807Z,68.20
2022-11-20T07:35:14.604Z,67.97
2022-11-20T07:38:17.356Z,67.89
2022-11-20T07:41:19.951Z,68.05
2022-11-20T07:44:22.551Z,67.86
2022-11-20T07:47:27.195Z,67.99
2022-11-20T07:50:29.864Z,66.56
2022-11-20T07:53:32.424Z,66.26
2022-11-20T07:56:35.369Z,65.96
2022-11-20T07:59:37.972Z,66.20
2022-11-20T08:02:42.339Z,66.24
2022-11-20T08:05:44.975Z,66.26
2022-11-20T08:08:47.575Z,65.36
2022-11-20T08:12:07.865Z,65.18
2022-11-20T08:15:13.381Z,65.12
2022-11-20T08:18:33.863Z,65.71
2022-11-20T08:21:38.497Z,65.16
2022-11-20T08:24:41.347Z,65.08
2022-11-20T08:27:43.946Z,65.03
2022-11-20T08:30:46.916Z,64.42
2022-11-20T08:33:51.082Z,64.51
2022-11-20T08:36:53.752Z,64.81
2022-11-20T08:39:58.103Z,64.58
2022-11-20T08:43:00.969Z,64.43
2022-11-20T08:46:03.707Z,63.75
2022-11-20T08:49:08.557Z,62.20
2022-11-20T08:52:11.274Z,61.83
2022-11-20T08:55:14.224Z,61.57
2022-11-20T08:58:16.807Z,61.63
2022-11-20T09:01:19.750Z,62.16
2022-11-20T09:04:23.862Z,61.95
2022-11-20T09:07:26.673Z,60.97
2022-11-20T09:10:29.842Z,62.02
2022-11-20T09:13:33.407Z,62.03
2022-11-20T09:16:36.021Z,63.20
2022-11-20T09:19:40.131Z,62.70
2022-11-20T09:22:42.908Z,62.19
2022-11-20T09:25:45.888Z,62.60
2022-11-20T09:28:48.534Z,62.76
2022-11-20T09:31:51.112Z,62.72
2022-11-20T09:34:55.009Z,62.34
2022-11-20T09:37:57.852Z,62.75
2022-11-20T09:41:04.697Z,62.53
2022-11-20T09:44:18.715Z,62.47
2022-11-20T09:47:28.977Z,61.89
2022-11-20T09:50:35.182Z,63.05
2022-11-20T09:53:48.427Z,62.12
2022-11-20T09:56:53.821Z,62.51
2022-11-20T09:59:58.603Z,61.87
2022-11-20T10:03:03.890Z,62.15
2022-11-20T10:06:12.475Z,61.85
2022-11-20T10:09:23.236Z,62.56
2022-11-20T10:12:30.154Z,63.70
2022-11-20T10:15:36.485Z,63.56
2022-11-20T10:18:51.608Z,63.89
2022-11-20T10:22:01.824Z,65.45
2022-11-20T10:25:08.757Z,65.38
2022-11-20T10:28:30.821Z,66.11
2022-11-20T10:31:35.931Z,69.56
2022-11-20T10:34:46.932Z,72.97
2022-11-20T10:37:55.488Z,74.77
2022-11-20T10:41:20.782Z,75.97
2022-11-20T10:44:44.579Z,78.39
2022-11-20T10:47:47.288Z,76.54
2022-11-20T10:51:05.961Z,78.86
2022-11-20T10:54:20.911Z,79.71
2022-11-20T10:57:34.174Z,79.74
2022-11-20T11:00:36.926Z,79.80
2022-11-20T11:03:39.663Z,79.36
2022-11-20T11:06:46.028Z,78.34
2022-11-20T11:09:51.663Z,78.59
2022-11-20T11:12:54.283Z,77.76
2022-11-20T11:15:57.671Z,76.91
2022-11-20T11:19:06.583Z,76.78
2022-11-20T11:22:13.408Z,77.34
2022-11-20T11:25:29.999Z,76.78
2022-11-20T11:28:33.056Z,76.55
2022-11-20T11:31:36.675Z,75.88
2022-11-20T11:34:39.455Z,77.32
2022-11-20T11:37:42.075Z,77.49
2022-11-20T11:40:46.168Z,78.34
2022-11-20T11:44:12.135Z,77.80
2022-11-20T11:47:23.249Z,75.21
2022-11-20T11:50:26.897Z,75.83
2022-11-20T11:53:29.383Z,75.68
2022-11-20T11:56:35.342Z,73.51
2022-11-20T11:59:46.585Z,73.67
2022-11-20T12:02:58.287Z,72.29
2022-11-20T12:06:04.063Z,68.58
2022-11-20T12:09:10.427Z,68.65
2022-11-20T12:12:19.523Z,68.70
2022-11-20T12:15:29.007Z,68.51
2022-11-20T12:18:31.882Z,67.53
2022-11-20T12:21:40.508Z,66.78
2022-11-20T12:24:49.205Z,64.23
2022-11-20T12:28:03.971Z,63.08
2022-11-20T12:31:23.457Z,61.29
2022-11-20T12:34:54.937Z,60.15
2022-11-20T12:38:08.582Z,59.42
2022-11-20T12:41:36.435Z,57.38
2022-11-20T12:45:12.239Z,57.52
2022-11-20T12:48:30.986Z,43.14
2022-11-20T12:51:57.269Z,35.37
2022-11-20T12:55:26.047Z,31.94
2022-11-20T12:58:35.630Z,32.17
2022-11-20T13:01:43.730Z,27.46
2022-11-20T13:05:08.249Z,28.94
2022-11-20T13:08:17.299Z,35.93
2022-11-20T13:11:25.336Z,35.51
2022-11-20T13:14:34.260Z,30.51
2022-11-20T13:17:42.515Z,32.60
2022-11-20T13:20:46.178Z,39.91
2022-11-20T13:23:48.770Z,42.75
2022-11-20T13:27:02.461Z,45.50
2022-11-20T13:30:18.108Z,37.74
2022-11-20T13:33:29.617Z,40.00
2022-11-20T13:36:33.321Z,31.07
2022-11-20T13:39:38.143Z,25.83
2022-11-20T13:42:42.576Z,24.85
2022-11-20T13:45:56.758Z,33.69
2022-11-20T13:49:02.497Z,42.49
2022-11-20T13:52:22.997Z,46.23
2022-11-20T13:55:31.093Z,46.80
2022-11-20T13:58:45.734Z,46.69
2022-11-20T14:01:48.606Z,48.50
2022-11-20T14:04:54.641Z,51.29
2022-11-20T14:07:58.220Z,49.82
2022-11-20T14:11:08.822Z,41.46
2022-11-20T14:14:17.968Z,36.42
2022-11-20T14:17:22.337Z,43.16
2022-11-20T14:20:29.609Z,49.32
2022-11-20T14:23:32.176Z,52.53
2022-11-20T14:26:35.156Z,54.07
2022-11-20T14:29:39.619Z,55.84
2022-11-20T14:32:43.500Z,56.41
2022-11-20T14:35:49.366Z,56.66
2022-11-20T14:38:52.903Z,56.80
2022-11-20T14:41:56.150Z,56.57
2022-11-20T14:45:00.109Z,56.81
2022-11-20T14:48:05.657Z,56.48
2022-11-20T14:51:11.412Z,56.40
2022-11-20T14:54:16.962Z,56.34
2022-11-20T14:57:26.305Z,55.92
2022-11-20T15:00:29.536Z,56.50
2022-11-20T15:03:36.519Z,56.98
2022-11-20T15:06:51.924Z,56.92
2022-11-20T15:10:05.614Z,57.77
2022-11-20T15:13:14.094Z,58.72
2022-11-20T15:16:20.040Z,59.60
2022-11-20T15:19:24.102Z,60.64
2022-11-20T15:22:28.080Z,61.32
2022-11-20T15:25:31.395Z,62.33
2022-11-20T15:28:35.918Z,62.96
2022-11-20T15:31:38.820Z,63.75
2022-11-20T15:34:41.687Z,65.00
2022-11-20T15:37:45.940Z,64.29
2022-11-20T15:40:48.602Z,64.01
2022-11-20T15:43:51.194Z,64.53
2022-11-20T15:46:53.857Z,65.77
2022-11-20T15:49:57.097Z,65.89
2022-11-20T15:53:01.249Z,66.08
2022-11-20T15:56:04.160Z,66.32
2022-11-20T15:59:06.783Z,66.88
2022-11-20T16:02:17.554Z,66.82
2022-11-20T16:05:24.035Z,67.43
2022-11-20T16:08:28.108Z,67.57
2022-11-20T16:11:30.738Z,68.15
2022-11-20T16:14:51.168Z,67.41
2022-11-20T16:17:53.769Z,68.14
2022-11-20T16:20:57.121Z,68.22
2022-11-20T16:24:01.854Z,68.47
2022-11-20T16:27:04.605Z,68.51
2022-11-20T16:30:08.509Z,68.13
2022-11-20T16:33:12.759Z,68.12
2022-11-20T16:36:16.755Z,67.38
2022-11-20T16:39:23.940Z,67.31
2022-11-20T16:42:26.829Z,67.63
2022-11-20T16:45:33.715Z,67.43
2022-11-20T16:48:36.628Z,66.44
2022-11-20T16:51:39.275Z,66.94
2022-11-20T16:54:43.274Z,67.37
2022-11-20T16:57:45.895Z,67.00
2022-11-20T17:00:51.614Z,66.41
2022-11-20T17:03:58.896Z,66.35
2022-11-20T17:07:07.621Z,66.45
2022-11-20T17:10:12.103Z,65.89
2022-11-20T17:13:14.744Z,66.39
2022-11-20T17:16:20.037Z,65.94
2022-11-20T17:19:22.704Z,66.17
2022-11-20T17:22:25.367Z,65.87
2022-11-20T17:25:29.325Z,65.65
2022-11-20T17:28:32.559Z,65.80
2022-11-20T17:31:35.887Z,65.44
2022-11-20T17:34:38.427Z,65.27
2022-11-20T17:37:41.025Z,65.53
2022-11-20T17:40:46.230Z,65.50
2022-11-20T17:43:49.519Z,65.65
2022-11-20T17:46:52.088Z,64.59
2022-11-20T17:49:55.423Z,64.34
2022-11-20T17:52:58.547Z,64.53
2022-11-20T17:56:20.259Z,63.98
2022-11-20T17:59:23.104Z,63.80
2022-11-20T18:02:25.916Z,63.64
2022-11-20T18:05:28.596Z,62.61
2022-11-20T18:08:31.432Z,62.77
2022-11-20T18:11:38.781Z,62.64
2022-11-20T18:14:43.509Z,62.61
2022-11-20T18:17:46.230Z,61.95
2022-11-20T18:20:54.228Z,62.02
2022-11-20T18:23:57.225Z,62.10
2022-11-20T18:27:01.709Z,61.72
2022-11-20T18:30:04.837Z,62.13
2022-11-20T18:33:07.924Z,62.47
2022-11-20T18:36:11.665Z,62.13
2022-11-20T18:39:14.505Z,61.81
2022-11-20T18:42:36.649Z,61.87
2022-11-20T18:45:39.255Z,62.23
2022-11-20T18:48:41.973Z,63.84
2022-11-20T18:51:45.006Z,64.94
2022-11-20T18:54:47.629Z,67.34
2022-11-20T18:57:51.576Z,68.57
2022-11-20T19:00:54.254Z,70.34
2022-11-20T19:03:57.183Z,70.05
2022-11-20T19:06:59.894Z,70.46
2022-11-20T19:10:04.175Z,71.62
2022-11-20T19:13:08.506Z,71.02
2022-11-20T19:16:17.853Z,71.78
2022-11-20T19:19:20.530Z,71.86
2022-11-20T19:22:23.148Z,71.70
2022-11-20T19:25:25.878Z,72.17
2022-11-20T19:28:31.541Z,71.21
2022-11-20T19:31:34.636Z,71.09
2022-11-20T19:34:37.262Z,71.00
2022-11-20T19:37:39.828Z,70.82
2022-11-20T19:40:42.446Z,68.06
2022-11-20T19:43:49.604Z,67.44
2022-11-20T19:46:52.210Z,66.37
2022-11-20T19:49:54.891Z,66.43
2022-11-20T19:52:59.058Z,65.60
2022-11-20T19:56:02.052Z,66.31
2022-11-20T19:59:06.140Z,66.16
2022-11-20T20:02:11.437Z,66.03
2022-11-20T20:05:14.115Z,65.94
2022-11-20T20:08:17.250Z,65.88
2022-11-20T20:11:21.789Z,65.90
2022-11-20T20:14:26.131Z,66.44
2022-11-20T20:17:28.707Z,66.51
2022-11-20T20:20:31.785Z,66.65
2022-11-20T20:23:35.480Z,65.95
2022-11-20T20:26:38.544Z,66.42
2022-11-20T20:29:42.510Z,66.92
2022-11-20T20:32:45.205Z,66.72
2022-11-20T20:35:47.837Z,66.32
2022-11-20T20:38:53.541Z,66.68
2022-11-20T20:41:56.159Z,66.59
2022-11-20T20:45:10.971Z,68.54
2022-11-20T20:48:13.643Z,69.52
2022-11-20T20:51:16.312Z,68.90
2022-11-20T20:54:18.970Z,69.09
2022-11-20T20:57:22.738Z,70.94
2022-11-20T21:00:26.832Z,71.11
2022-11-20T21:03:32.892Z,71.17
2022-11-20T21:06:35.717Z,70.59
2022-11-20T21:09:38.538Z,70.44
2022-11-20T21:12:41.095Z,70.32
2022-11-20T21:15:47.567Z,70.01
2022-11-20T21:18:50.393Z,69.55
2022-11-20T21:22:03.136Z,68.96
2022-11-20T21:25:06.486Z,69.18
2022-11-20T21:28:12.025Z,67.99
2022-11-20T21:31:21.883Z,68.98
2022-11-20T21:34:25.447Z,70.89
2022-11-20T21:37:28.378Z,71.23
2022-11-20T21:40:31.044Z,71.35
2022-11-20T21:43:33.735Z,71.60
2022-11-20T21:46:40.000Z,71.69
2022-11-20T21:49:42.680Z,71.46
2022-11-20T21:52:45.581Z,71.72
2022-11-20T21:55:54.255Z,71.43
2022-11-20T21:58:57.011Z,70.88
2022-11-20T22:02:01.139Z,70.84
2022-11-20T22:05:03.683Z,70.65
2022-11-20T22:08:07.077Z,70.46
2022-11-20T22:11:12.265Z,71.10
2022-11-20T22:14:24.747Z,71.21
2022-11-20T22:17:42.977Z,70.76
2022-11-20T22:20:45.627Z,71.10
2022-11-20T22:23:48.343Z,71.32
2022-11-20T22:26:51.040Z,70.98
2022-11-20T22:29:53.617Z,71.12
2022-11-20T22:32:57.592Z,70.92
2022-11-20T22:36:04.663Z,69.64
2022-11-20T22:39:07.714Z,69.83
2022-11-20T22:42:10.553Z,70.12
2022-11-20T22:45:14.128Z,70.33
2022-11-20T22:48:19.168Z,70.83
2022-11-20T22:51:23.141Z,70.82
2022-11-20T22:54:25.956Z,71.76
2022-11-20T22:57:28.723Z,71.46
2022-11-20T23:00:31.376Z,72.40
2022-11-20T23:03:35.364Z,72.85
2022-11-20T23:06:38.299Z,72.31
2022-11-20T23:09:40.848Z,71.79
2022-11-20T23:12:43.353Z,71.72
2022-11-20T23:15:46.016Z,70.74
2022-11-20T23:18:49.978Z,70.58
2022-11-20T23:21:52.570Z,70.08
2022-11-20T23:24:55.152Z,69.79
2022-11-20T23:27:57.826Z,69.26
2022-11-20T23:31:00.979Z,69.64
2022-11-20T23:34:05.065Z,70.08
2022-11-20T23:37:09.697Z,70.49
2022-11-20T23:40:12.936Z,70.97
2022-11-20T23:43:18.524Z,71.04
2022-11-20T23:46:21.161Z,70.65
2022-11-20T23:49:25.116Z,71.03
2022-11-20T23:52:27.692Z,70.65
2022-11-20T23:55:30.526Z,70.91
2022-11-20T23:58:34.708Z,71.18
